sensor_id;sensor_type;location;lat;lon;timestamp;temperature;humidity
3262;DHT22;1643;47.746;9.000;2024-03-02T00:00:01;6.90;99.90
3262;DHT22;1643;47.746;9.000;2024-03-02T00:02:40;6.80;99.90
3262;DHT22;1643;47.746;9.000;2024-03-02T00:05:07;6.80;99.90
3262;DHT22;1643;47.746;9.000;2024-03-02T00:07:33;6.90;99.90
3262;DHT22;1643;47.746;9.000;2024-03-02T00:09:59;6.90;99.90
3262;DHT22;1643;47.746;9.000;2024-03-02T00:12:25;6.80;99.90
3262;DHT22;1643;47.746;9.000;2024-03-02T00:14:51;6.60;99.90
3262;DHT22;1643;47.746;9.000;2024-03-02T00:17:24;6.50;99.90
3262;DHT22;1643;47.746;9.000;2024-03-02T00:19:51;6.40;99.90
3262;DHT22;1643;47.746;9.000;2024-03-02T00:22:17;6.40;99.90
3262;DHT22;1643;47.746;9.000;2024-03-02T00:24:43;6.50;99.90
3262;DHT22;1643;47.746;9.000;2024-03-02T00:27:13;6.50;99.90
3262;DHT22;1643;47.746;9.000;2024-03-02T00:29:40;6.50;99.90
3262;DHT22;1643;47.746;9.000;2024-03-02T00:32:13;6.60;99.90
3262;DHT22;1643;47.746;9.000;2024-03-02T00:34:56;6.60;99.90
3262;DHT22;1643;47.746;9.000;2024-03-02T00:37:22;6.70;99.90
3262;DHT22;1643;47.746;9.000;2024-03-02T00:39:49;6.80;99.90
3262;DHT22;1643;47.746;9.000;2024-03-02T00:42:15;6.80;99.90
3262;DHT22;1643;47.746;9.000;2024-03-02T00:44:40;6.90;99.90
3262;DHT22;1643;47.746;9.000;2024-03-02T00:47:07;6.90;99.90
3262;DHT22;1643;47.746;9.000;2024-03-02T00:49:32;6.90;99.90
3262;DHT22;1643;47.746;9.000;2024-03-02T00:51:59;6.90;99.90
3262;DHT22;1643;47.746;9.000;2024-03-02T00:54:27;7.00;99.90
3262;DHT22;1643;47.746;9.000;2024-03-02T00:56:54;6.90;99.90
3262;DHT22;1643;47.746;9.000;2024-03-02T00:59:22;6.90;99.90
3262;DHT22;1643;47.746;9.000;2024-03-02T01:01:48;6.80;99.90
3262;DHT22;1643;47.746;9.000;2024-03-02T01:04:15;6.80;99.90
3262;DHT22;1643;47.746;9.000;2024-03-02T01:06:42;6.80;99.90
3262;DHT22;1643;47.746;9.000;2024-03-02T01:09:07;6.80;99.90
3262;DHT22;1643;47.746;9.000;2024-03-02T01:11:33;6.80;99.90
3262;DHT22;1643;47.746;9.000;2024-03-02T01:13:59;6.80;99.90
3262;DHT22;1643;47.746;9.000;2024-03-02T01:16:24;6.70;99.90
3262;DHT22;1643;47.746;9.000;2024-03-02T01:18:50;6.70;99.90
3262;DHT22;1643;47.746;9.000;2024-03-02T01:21:16;6.70;99.90
3262;DHT22;1643;47.746;9.000;2024-03-02T01:23:42;6.60;99.90
3262;DHT22;1643;47.746;9.000;2024-03-02T01:26:07;6.60;99.90
3262;DHT22;1643;47.746;9.000;2024-03-02T01:28:34;6.60;99.90
3262;DHT22;1643;47.746;9.000;2024-03-02T01:30:59;6.60;99.90
3262;DHT22;1643;47.746;9.000;2024-03-02T01:33:25;6.70;99.90
3262;DHT22;1643;47.746;9.000;2024-03-02T01:35:50;6.70;99.90
3262;DHT22;1643;47.746;9.000;2024-03-02T01:38:16;6.70;99.90
3262;DHT22;1643;47.746;9.000;2024-03-02T01:40:42;6.70;99.90
3262;DHT22;1643;47.746;9.000;2024-03-02T01:43:10;6.60;99.90
3262;DHT22;1643;47.746;9.000;2024-03-02T01:45:36;6.50;99.90
3262;DHT22;1643;47.746;9.000;2024-03-02T01:48:06;6.60;99.90
3262;DHT22;1643;47.746;9.000;2024-03-02T01:50:33;6.60;99.90
3262;DHT22;1643;47.746;9.000;2024-03-02T01:52:59;6.70;99.90
3262;DHT22;1643;47.746;9.000;2024-03-02T01:55:25;6.60;99.90
3262;DHT22;1643;47.746;9.000;2024-03-02T01:57:52;6.60;99.90
3262;DHT22;1643;47.746;9.000;2024-03-02T02:00:18;6.60;99.90
3262;DHT22;1643;47.746;9.000;2024-03-02T02:02:45;6.60;99.90
3262;DHT22;1643;47.746;9.000;2024-03-02T02:05:11;6.60;99.90
3262;DHT22;1643;47.746;9.000;2024-03-02T02:07:37;6.60;99.90
3262;DHT22;1643;47.746;9.000;2024-03-02T02:10:02;6.60;99.90
3262;DHT22;1643;47.746;9.000;2024-03-02T02:12:28;6.60;99.90
3262;DHT22;1643;47.746;9.000;2024-03-02T02:14:54;6.60;99.90
3262;DHT22;1643;47.746;9.000;2024-03-02T02:17:20;6.60;99.90
3262;DHT22;1643;47.746;9.000;2024-03-02T02:19:46;6.60;99.90
3262;DHT22;1643;47.746;9.000;2024-03-02T02:22:12;6.70;99.90
3262;DHT22;1643;47.746;9.000;2024-03-02T02:24:41;6.70;99.90
3262;DHT22;1643;47.746;9.000;2024-03-02T02:27:07;6.70;99.90
3262;DHT22;1643;47.746;9.000;2024-03-02T02:29:33;6.60;99.90
3262;DHT22;1643;47.746;9.000;2024-03-02T02:31:59;6.70;99.90
3262;DHT22;1643;47.746;9.000;2024-03-02T02:34:24;6.70;99.90
3262;DHT22;1643;47.746;9.000;2024-03-02T02:36:50;6.70;99.90
3262;DHT22;1643;47.746;9.000;2024-03-02T02:39:18;6.60;99.90
3262;DHT22;1643;47.746;9.000;2024-03-02T02:41:44;6.50;99.90
3262;DHT22;1643;47.746;9.000;2024-03-02T02:44:09;6.50;99.90
3262;DHT22;1643;47.746;9.000;2024-03-02T02:46:38;6.50;99.90
3262;DHT22;1643;47.746;9.000;2024-03-02T02:49:04;6.40;99.90
3262;DHT22;1643;47.746;9.000;2024-03-02T02:51:30;6.40;99.90
3262;DHT22;1643;47.746;9.000;2024-03-02T02:53:55;6.50;99.90
3262;DHT22;1643;47.746;9.000;2024-03-02T02:56:21;6.60;99.90
3262;DHT22;1643;47.746;9.000;2024-03-02T02:58:47;6.60;99.90
3262;DHT22;1643;47.746;9.000;2024-03-02T03:01:13;6.60;99.90
3262;DHT22;1643;47.746;9.000;2024-03-02T03:03:38;6.60;99.90
3262;DHT22;1643;47.746;9.000;2024-03-02T03:06:04;6.60;99.90
3262;DHT22;1643;47.746;9.000;2024-03-02T03:08:30;6.70;99.90
3262;DHT22;1643;47.746;9.000;2024-03-02T03:10:55;6.70;99.90
3262;DHT22;1643;47.746;9.000;2024-03-02T03:13:21;6.60;99.90
3262;DHT22;1643;47.746;9.000;2024-03-02T03:15:46;6.60;99.90
3262;DHT22;1643;47.746;9.000;2024-03-02T03:18:12;6.70;99.90
3262;DHT22;1643;47.746;9.000;2024-03-02T03:20:38;6.70;99.90
3262;DHT22;1643;47.746;9.000;2024-03-02T03:23:03;6.80;99.90
3262;DHT22;1643;47.746;9.000;2024-03-02T03:25:30;6.80;99.90
3262;DHT22;1643;47.746;9.000;2024-03-02T03:27:55;6.80;99.90
3262;DHT22;1643;47.746;9.000;2024-03-02T03:30:21;6.70;99.90
3262;DHT22;1643;47.746;9.000;2024-03-02T03:32:46;6.70;99.90
3262;DHT22;1643;47.746;9.000;2024-03-02T03:35:13;6.80;99.90
3262;DHT22;1643;47.746;9.000;2024-03-02T03:37:40;6.70;99.90
3262;DHT22;1643;47.746;9.000;2024-03-02T03:40:06;6.70;99.90
3262;DHT22;1643;47.746;9.000;2024-03-02T03:42:38;6.70;99.90
3262;DHT22;1643;47.746;9.000;2024-03-02T03:45:05;6.70;99.90
3262;DHT22;1643;47.746;9.000;2024-03-02T03:47:32;6.70;99.90
3262;DHT22;1643;47.746;9.000;2024-03-02T03:49:57;6.80;99.90
3262;DHT22;1643;47.746;9.000;2024-03-02T03:52:23;6.80;99.90
3262;DHT22;1643;47.746;9.000;2024-03-02T03:54:49;6.70;99.90
3262;DHT22;1643;47.746;9.000;2024-03-02T03:57:15;6.80;99.90
3262;DHT22;1643;47.746;9.000;2024-03-02T03:59:41;6.70;99.90
3262;DHT22;1643;47.746;9.000;2024-03-02T04:02:07;6.70;99.90
3262;DHT22;1643;47.746;9.000;2024-03-02T04:04:33;6.70;99.90
3262;DHT22;1643;47.746;9.000;2024-03-02T04:06:59;6.70;99.90
3262;DHT22;1643;47.746;9.000;2024-03-02T04:09:25;6.70;99.90
3262;DHT22;1643;47.746;9.000;2024-03-02T04:11:51;6.70;99.90
3262;DHT22;1643;47.746;9.000;2024-03-02T04:14:17;6.70;99.90
3262;DHT22;1643;47.746;9.000;2024-03-02T04:16:42;6.70;99.90
3262;DHT22;1643;47.746;9.000;2024-03-02T04:19:08;6.70;99.90
3262;DHT22;1643;47.746;9.000;2024-03-02T04:21:33;6.70;99.90
3262;DHT22;1643;47.746;9.000;2024-03-02T04:23:59;6.70;99.90
3262;DHT22;1643;47.746;9.000;2024-03-02T04:26:25;6.70;99.90
3262;DHT22;1643;47.746;9.000;2024-03-02T04:28:52;6.70;99.90
3262;DHT22;1643;47.746;9.000;2024-03-02T04:31:18;6.80;99.90
3262;DHT22;1643;47.746;9.000;2024-03-02T04:33:43;6.70;99.90
3262;DHT22;1643;47.746;9.000;2024-03-02T04:36:09;6.70;99.90
3262;DHT22;1643;47.746;9.000;2024-03-02T04:38:35;6.80;99.90
3262;DHT22;1643;47.746;9.000;2024-03-02T04:41:01;6.90;99.90
3262;DHT22;1643;47.746;9.000;2024-03-02T04:43:27;6.80;99.90
3262;DHT22;1643;47.746;9.000;2024-03-02T04:45:52;6.80;99.90
3262;DHT22;1643;47.746;9.000;2024-03-02T04:48:18;6.80;99.90
3262;DHT22;1643;47.746;9.000;2024-03-02T04:50:44;6.80;99.90
3262;DHT22;1643;47.746;9.000;2024-03-02T04:53:10;6.80;99.90
3262;DHT22;1643;47.746;9.000;2024-03-02T04:55:36;6.80;99.90
3262;DHT22;1643;47.746;9.000;2024-03-02T04:58:04;6.80;99.90
3262;DHT22;1643;47.746;9.000;2024-03-02T05:00:30;6.80;99.90
3262;DHT22;1643;47.746;9.000;2024-03-02T05:02:56;6.80;99.90
3262;DHT22;1643;47.746;9.000;2024-03-02T05:05:22;6.70;99.90
3262;DHT22;1643;47.746;9.000;2024-03-02T05:07:47;6.70;99.90
3262;DHT22;1643;47.746;9.000;2024-03-02T05:10:13;6.70;99.90
3262;DHT22;1643;47.746;9.000;2024-03-02T05:12:39;6.70;99.90
3262;DHT22;1643;47.746;9.000;2024-03-02T05:15:09;6.60;99.90
3262;DHT22;1643;47.746;9.000;2024-03-02T05:17:36;6.70;99.90
3262;DHT22;1643;47.746;9.000;2024-03-02T05:20:02;6.70;99.90
3262;DHT22;1643;47.746;9.000;2024-03-02T05:22:29;6.70;99.90
3262;DHT22;1643;47.746;9.000;2024-03-02T05:24:54;6.80;99.90
3262;DHT22;1643;47.746;9.000;2024-03-02T05:27:20;6.80;99.90
3262;DHT22;1643;47.746;9.000;2024-03-02T05:29:46;6.80;99.90
3262;DHT22;1643;47.746;9.000;2024-03-02T05:32:12;6.80;99.90
3262;DHT22;1643;47.746;9.000;2024-03-02T05:34:38;6.70;99.90
3262;DHT22;1643;47.746;9.000;2024-03-02T05:37:03;6.70;99.90
3262;DHT22;1643;47.746;9.000;2024-03-02T05:39:29;6.70;99.90
3262;DHT22;1643;47.746;9.000;2024-03-02T05:41:54;6.70;99.90
3262;DHT22;1643;47.746;9.000;2024-03-02T05:44:20;6.70;99.90
3262;DHT22;1643;47.746;9.000;2024-03-02T05:46:46;6.70;99.90
3262;DHT22;1643;47.746;9.000;2024-03-02T05:49:12;6.70;99.90
3262;DHT22;1643;47.746;9.000;2024-03-02T05:51:38;6.70;99.90
3262;DHT22;1643;47.746;9.000;2024-03-02T05:54:03;6.70;99.90
3262;DHT22;1643;47.746;9.000;2024-03-02T05:56:29;6.70;99.90
3262;DHT22;1643;47.746;9.000;2024-03-02T05:58:54;6.70;99.90
3262;DHT22;1643;47.746;9.000;2024-03-02T06:01:44;6.70;99.90
3262;DHT22;1643;47.746;9.000;2024-03-02T06:04:10;6.70;99.90
3262;DHT22;1643;47.746;9.000;2024-03-02T06:06:36;6.70;99.90
3262;DHT22;1643;47.746;9.000;2024-03-02T06:09:03;6.80;99.90
3262;DHT22;1643;47.746;9.000;2024-03-02T06:11:38;6.80;99.90
3262;DHT22;1643;47.746;9.000;2024-03-02T06:14:08;6.80;99.90
3262;DHT22;1643;47.746;9.000;2024-03-02T06:16:34;6.80;99.90
3262;DHT22;1643;47.746;9.000;2024-03-02T06:19:00;6.70;99.90
3262;DHT22;1643;47.746;9.000;2024-03-02T06:21:26;6.70;99.90
3262;DHT22;1643;47.746;9.000;2024-03-02T06:23:52;6.70;99.90
3262;DHT22;1643;47.746;9.000;2024-03-02T06:26:18;6.70;99.90
3262;DHT22;1643;47.746;9.000;2024-03-02T06:28:44;6.70;99.90
3262;DHT22;1643;47.746;9.000;2024-03-02T06:31:10;6.80;99.90
3262;DHT22;1643;47.746;9.000;2024-03-02T06:33:36;6.80;99.90
3262;DHT22;1643;47.746;9.000;2024-03-02T06:36:02;6.80;99.90
3262;DHT22;1643;47.746;9.000;2024-03-02T06:38:28;6.80;99.90
3262;DHT22;1643;47.746;9.000;2024-03-02T06:40:54;6.70;99.90
3262;DHT22;1643;47.746;9.000;2024-03-02T06:43:21;6.70;99.90
3262;DHT22;1643;47.746;9.000;2024-03-02T06:45:51;6.80;99.90
3262;DHT22;1643;47.746;9.000;2024-03-02T06:48:17;6.80;99.90
3262;DHT22;1643;47.746;9.000;2024-03-02T06:50:46;6.80;99.90
3262;DHT22;1643;47.746;9.000;2024-03-02T06:53:13;6.80;99.90
3262;DHT22;1643;47.746;9.000;2024-03-02T06:55:39;6.80;99.90
3262;DHT22;1643;47.746;9.000;2024-03-02T06:58:04;6.80;99.90
3262;DHT22;1643;47.746;9.000;2024-03-02T07:00:30;6.90;99.90
3262;DHT22;1643;47.746;9.000;2024-03-02T07:02:56;6.90;99.90
3262;DHT22;1643;47.746;9.000;2024-03-02T07:05:21;6.80;99.90
3262;DHT22;1643;47.746;9.000;2024-03-02T07:07:47;6.80;99.90
3262;DHT22;1643;47.746;9.000;2024-03-02T07:10:13;6.80;99.90
3262;DHT22;1643;47.746;9.000;2024-03-02T07:12:38;6.80;99.90
3262;DHT22;1643;47.746;9.000;2024-03-02T07:15:04;6.80;99.90
3262;DHT22;1643;47.746;9.000;2024-03-02T07:17:31;6.80;99.90
3262;DHT22;1643;47.746;9.000;2024-03-02T07:19:57;6.80;99.90
3262;DHT22;1643;47.746;9.000;2024-03-02T07:22:23;6.80;99.90
3262;DHT22;1643;47.746;9.000;2024-03-02T07:24:49;6.80;99.90
3262;DHT22;1643;47.746;9.000;2024-03-02T07:27:16;6.80;99.90
3262;DHT22;1643;47.746;9.000;2024-03-02T07:29:43;6.80;99.90
3262;DHT22;1643;47.746;9.000;2024-03-02T07:32:09;6.80;99.90
3262;DHT22;1643;47.746;9.000;2024-03-02T07:34:35;6.80;99.90
3262;DHT22;1643;47.746;9.000;2024-03-02T07:37:01;6.70;99.90
3262;DHT22;1643;47.746;9.000;2024-03-02T07:39:27;6.80;99.90
3262;DHT22;1643;47.746;9.000;2024-03-02T07:41:53;6.80;99.90
3262;DHT22;1643;47.746;9.000;2024-03-02T07:44:19;6.90;99.90
3262;DHT22;1643;47.746;9.000;2024-03-02T07:46:45;6.90;99.90
3262;DHT22;1643;47.746;9.000;2024-03-02T07:49:21;6.90;99.90
3262;DHT22;1643;47.746;9.000;2024-03-02T07:51:46;6.90;99.90
3262;DHT22;1643;47.746;9.000;2024-03-02T07:54:12;7.00;99.90
3262;DHT22;1643;47.746;9.000;2024-03-02T07:56:38;7.00;99.90
3262;DHT22;1643;47.746;9.000;2024-03-02T07:59:04;7.10;99.90
3262;DHT22;1643;47.746;9.000;2024-03-02T08:01:30;7.10;99.90
3262;DHT22;1643;47.746;9.000;2024-03-02T08:04:00;7.10;99.90
3262;DHT22;1643;47.746;9.000;2024-03-02T08:06:28;7.20;99.90
3262;DHT22;1643;47.746;9.000;2024-03-02T08:08:55;7.20;99.90
3262;DHT22;1643;47.746;9.000;2024-03-02T08:11:21;7.40;99.90
3262;DHT22;1643;47.746;9.000;2024-03-02T08:13:47;7.50;99.90
3262;DHT22;1643;47.746;9.000;2024-03-02T08:16:14;7.50;99.90
3262;DHT22;1643;47.746;9.000;2024-03-02T08:18:40;7.50;99.90
3262;DHT22;1643;47.746;9.000;2024-03-02T08:21:06;7.50;99.90
3262;DHT22;1643;47.746;9.000;2024-03-02T08:23:34;7.50;99.90
3262;DHT22;1643;47.746;9.000;2024-03-02T08:26:00;7.50;99.90
3262;DHT22;1643;47.746;9.000;2024-03-02T08:28:25;7.50;99.90
3262;DHT22;1643;47.746;9.000;2024-03-02T08:30:51;7.60;99.90
3262;DHT22;1643;47.746;9.000;2024-03-02T08:33:16;7.50;99.90
3262;DHT22;1643;47.746;9.000;2024-03-02T08:35:42;7.50;99.90
3262;DHT22;1643;47.746;9.000;2024-03-02T08:38:08;7.50;99.90
3262;DHT22;1643;47.746;9.000;2024-03-02T08:40:34;7.60;99.90
3262;DHT22;1643;47.746;9.000;2024-03-02T08:42:59;7.60;99.90
3262;DHT22;1643;47.746;9.000;2024-03-02T08:45:25;7.60;99.90
3262;DHT22;1643;47.746;9.000;2024-03-02T08:47:51;7.60;99.90
3262;DHT22;1643;47.746;9.000;2024-03-02T08:50:16;7.60;99.90
3262;DHT22;1643;47.746;9.000;2024-03-02T08:52:42;7.70;99.90
3262;DHT22;1643;47.746;9.000;2024-03-02T08:55:08;7.80;99.90
3262;DHT22;1643;47.746;9.000;2024-03-02T08:57:35;7.80;99.90
3262;DHT22;1643;47.746;9.000;2024-03-02T09:00:00;7.80;99.90
3262;DHT22;1643;47.746;9.000;2024-03-02T09:02:26;7.90;99.90
3262;DHT22;1643;47.746;9.000;2024-03-02T09:04:52;7.80;99.90
3262;DHT22;1643;47.746;9.000;2024-03-02T09:07:18;7.90;99.90
3262;DHT22;1643;47.746;9.000;2024-03-02T09:09:44;7.90;99.90
3262;DHT22;1643;47.746;9.000;2024-03-02T09:12:09;7.90;99.90
3262;DHT22;1643;47.746;9.000;2024-03-02T09:14:36;7.90;99.90
3262;DHT22;1643;47.746;9.000;2024-03-02T09:17:02;7.90;99.90
3262;DHT22;1643;47.746;9.000;2024-03-02T09:19:29;7.90;99.90
3262;DHT22;1643;47.746;9.000;2024-03-02T09:21:54;7.90;99.90
3262;DHT22;1643;47.746;9.000;2024-03-02T09:24:21;7.90;99.90
3262;DHT22;1643;47.746;9.000;2024-03-02T09:26:47;7.90;99.90
3262;DHT22;1643;47.746;9.000;2024-03-02T09:29:13;8.00;99.90
3262;DHT22;1643;47.746;9.000;2024-03-02T09:31:42;8.10;99.90
3262;DHT22;1643;47.746;9.000;2024-03-02T09:34:08;8.10;99.90
3262;DHT22;1643;47.746;9.000;2024-03-02T09:36:34;8.10;99.90
3262;DHT22;1643;47.746;9.000;2024-03-02T09:39:00;8.10;99.90
3262;DHT22;1643;47.746;9.000;2024-03-02T09:41:25;8.10;99.90
3262;DHT22;1643;47.746;9.000;2024-03-02T09:43:51;8.10;99.90
3262;DHT22;1643;47.746;9.000;2024-03-02T09:46:17;8.20;99.90
3262;DHT22;1643;47.746;9.000;2024-03-02T09:48:44;8.30;99.90
3262;DHT22;1643;47.746;9.000;2024-03-02T09:51:11;8.30;99.90
3262;DHT22;1643;47.746;9.000;2024-03-02T09:53:37;8.30;99.90
3262;DHT22;1643;47.746;9.000;2024-03-02T09:56:03;8.30;99.90
3262;DHT22;1643;47.746;9.000;2024-03-02T09:58:30;8.30;99.90
3262;DHT22;1643;47.746;9.000;2024-03-02T10:00:56;8.40;99.90
3262;DHT22;1643;47.746;9.000;2024-03-02T10:03:23;8.40;99.90
3262;DHT22;1643;47.746;9.000;2024-03-02T10:05:50;8.40;99.90
3262;DHT22;1643;47.746;9.000;2024-03-02T10:08:15;8.30;99.90
3262;DHT22;1643;47.746;9.000;2024-03-02T10:10:41;8.30;99.90
3262;DHT22;1643;47.746;9.000;2024-03-02T10:13:11;8.30;99.90
3262;DHT22;1643;47.746;9.000;2024-03-02T10:15:39;8.20;99.90
3262;DHT22;1643;47.746;9.000;2024-03-02T10:18:12;8.20;99.90
3262;DHT22;1643;47.746;9.000;2024-03-02T10:20:39;8.30;99.90
3262;DHT22;1643;47.746;9.000;2024-03-02T10:23:15;8.30;99.90
3262;DHT22;1643;47.746;9.000;2024-03-02T10:25:42;8.40;99.90
3262;DHT22;1643;47.746;9.000;2024-03-02T10:28:09;8.40;99.90
3262;DHT22;1643;47.746;9.000;2024-03-02T10:30:34;8.50;99.90
3262;DHT22;1643;47.746;9.000;2024-03-02T10:33:01;8.60;99.90
3262;DHT22;1643;47.746;9.000;2024-03-02T10:35:27;8.60;99.90
3262;DHT22;1643;47.746;9.000;2024-03-02T10:37:53;8.80;99.90
3262;DHT22;1643;47.746;9.000;2024-03-02T10:40:23;8.80;99.90
3262;DHT22;1643;47.746;9.000;2024-03-02T10:42:50;8.80;99.90
3262;DHT22;1643;47.746;9.000;2024-03-02T10:45:20;8.80;99.90
3262;DHT22;1643;47.746;9.000;2024-03-02T10:47:49;8.80;99.90
3262;DHT22;1643;47.746;9.000;2024-03-02T10:50:15;9.00;99.90
3262;DHT22;1643;47.746;9.000;2024-03-02T10:52:41;9.00;99.90
3262;DHT22;1643;47.746;9.000;2024-03-02T10:55:11;9.00;99.90
3262;DHT22;1643;47.746;9.000;2024-03-02T10:57:41;9.00;99.90
3262;DHT22;1643;47.746;9.000;2024-03-02T11:00:08;9.20;99.90
3262;DHT22;1643;47.746;9.000;2024-03-02T11:02:42;9.30;99.90
3262;DHT22;1643;47.746;9.000;2024-03-02T11:05:12;9.30;99.90
3262;DHT22;1643;47.746;9.000;2024-03-02T11:07:39;9.30;99.90
3262;DHT22;1643;47.746;9.000;2024-03-02T11:10:08;9.50;99.90
3262;DHT22;1643;47.746;9.000;2024-03-02T11:12:48;9.80;99.90
3262;DHT22;1643;47.746;9.000;2024-03-02T11:15:18;10.00;99.90
3262;DHT22;1643;47.746;9.000;2024-03-02T11:17:45;10.30;99.90
3262;DHT22;1643;47.746;9.000;2024-03-02T11:20:12;10.60;99.90
3262;DHT22;1643;47.746;9.000;2024-03-02T11:22:38;10.40;99.90
3262;DHT22;1643;47.746;9.000;2024-03-02T11:25:04;10.50;99.90
3262;DHT22;1643;47.746;9.000;2024-03-02T11:33:03;11.10;99.90
3262;DHT22;1643;47.746;9.000;2024-03-02T11:35:41;11.20;99.90
3262;DHT22;1643;47.746;9.000;2024-03-02T11:38:12;11.20;99.90
3262;DHT22;1643;47.746;9.000;2024-03-02T11:40:39;11.30;99.90
3262;DHT22;1643;47.746;9.000;2024-03-02T11:43:06;11.40;99.90
3262;DHT22;1643;47.746;9.000;2024-03-02T11:45:33;11.70;99.90
3262;DHT22;1643;47.746;9.000;2024-03-02T11:47:59;11.80;99.90
3262;DHT22;1643;47.746;9.000;2024-03-02T11:50:42;11.90;99.90
3262;DHT22;1643;47.746;9.000;2024-03-02T11:53:09;12.00;99.90
3262;DHT22;1643;47.746;9.000;2024-03-02T11:55:39;11.80;99.90
3262;DHT22;1643;47.746;9.000;2024-03-02T11:58:09;11.80;99.90
3262;DHT22;1643;47.746;9.000;2024-03-02T12:00:35;11.90;99.90
3262;DHT22;1643;47.746;9.000;2024-03-02T12:05:27;12.20;99.90
3262;DHT22;1643;47.746;9.000;2024-03-02T12:08:01;12.20;99.90
3262;DHT22;1643;47.746;9.000;2024-03-02T12:10:28;12.40;99.90
3262;DHT22;1643;47.746;9.000;2024-03-02T12:13:01;12.50;99.90
3262;DHT22;1643;47.746;9.000;2024-03-02T12:15:31;12.60;99.90
3262;DHT22;1643;47.746;9.000;2024-03-02T12:17:58;12.60;99.90
3262;DHT22;1643;47.746;9.000;2024-03-02T12:20:26;12.60;99.90
3262;DHT22;1643;47.746;9.000;2024-03-02T12:22:52;12.70;99.90
3262;DHT22;1643;47.746;9.000;2024-03-02T12:25:20;12.70;99.90
3262;DHT22;1643;47.746;9.000;2024-03-02T12:27:50;12.60;99.90
3262;DHT22;1643;47.746;9.000;2024-03-02T12:30:17;13.00;99.90
3262;DHT22;1643;47.746;9.000;2024-03-02T12:32:44;13.20;99.90
3262;DHT22;1643;47.746;9.000;2024-03-02T12:35:11;13.30;99.90
3262;DHT22;1643;47.746;9.000;2024-03-02T12:37:44;13.60;99.90
3262;DHT22;1643;47.746;9.000;2024-03-02T12:40:14;13.70;99.90
3262;DHT22;1643;47.746;9.000;2024-03-02T12:42:41;13.80;99.90
3262;DHT22;1643;47.746;9.000;2024-03-02T12:45:09;13.80;99.90
3262;DHT22;1643;47.746;9.000;2024-03-02T12:47:36;13.90;99.90
3262;DHT22;1643;47.746;9.000;2024-03-02T12:50:03;14.00;99.90
3262;DHT22;1643;47.746;9.000;2024-03-02T12:52:29;14.10;99.90
3262;DHT22;1643;47.746;9.000;2024-03-02T12:54:55;14.10;99.90
3262;DHT22;1643;47.746;9.000;2024-03-02T12:57:28;14.10;99.90
3262;DHT22;1643;47.746;9.000;2024-03-02T13:00:04;14.20;99.90
3262;DHT22;1643;47.746;9.000;2024-03-02T13:02:40;14.40;99.90
3262;DHT22;1643;47.746;9.000;2024-03-02T13:05:07;14.60;99.90
3262;DHT22;1643;47.746;9.000;2024-03-02T13:07:40;14.50;99.90
3262;DHT22;1643;47.746;9.000;2024-03-02T13:10:06;14.60;99.90
3262;DHT22;1643;47.746;9.000;2024-03-02T13:12:36;14.70;99.90
3262;DHT22;1643;47.746;9.000;2024-03-02T13:15:03;14.70;99.90
3262;DHT22;1643;47.746;9.000;2024-03-02T13:17:29;14.70;99.90
3262;DHT22;1643;47.746;9.000;2024-03-02T13:19:59;14.70;99.90
3262;DHT22;1643;47.746;9.000;2024-03-02T13:22:25;14.80;99.90
3262;DHT22;1643;47.746;9.000;2024-03-02T13:24:52;14.90;99.90
3262;DHT22;1643;47.746;9.000;2024-03-02T13:27:18;14.90;99.90
3262;DHT22;1643;47.746;9.000;2024-03-02T13:29:47;15.00;99.90
3262;DHT22;1643;47.746;9.000;2024-03-02T13:32:14;15.10;99.90
3262;DHT22;1643;47.746;9.000;2024-03-02T13:34:40;15.20;99.90
3262;DHT22;1643;47.746;9.000;2024-03-02T13:37:06;15.20;99.90
3262;DHT22;1643;47.746;9.000;2024-03-02T13:39:37;15.30;99.90
3262;DHT22;1643;47.746;9.000;2024-03-02T13:42:11;15.40;99.90
3262;DHT22;1643;47.746;9.000;2024-03-02T13:44:39;15.20;99.90
3262;DHT22;1643;47.746;9.000;2024-03-02T13:47:05;15.00;99.90
3262;DHT22;1643;47.746;9.000;2024-03-02T13:49:31;15.10;99.90
3262;DHT22;1643;47.746;9.000;2024-03-02T13:52:03;15.20;99.90
3262;DHT22;1643;47.746;9.000;2024-03-02T13:54:49;15.50;99.90
3262;DHT22;1643;47.746;9.000;2024-03-02T13:57:15;15.60;99.90
3262;DHT22;1643;47.746;9.000;2024-03-02T13:59:42;15.50;99.90
3262;DHT22;1643;47.746;9.000;2024-03-02T14:02:08;15.70;99.90
3262;DHT22;1643;47.746;9.000;2024-03-02T14:04:34;15.90;99.90
3262;DHT22;1643;47.746;9.000;2024-03-02T14:07:00;16.10;99.90
3262;DHT22;1643;47.746;9.000;2024-03-02T14:09:27;16.20;99.90
3262;DHT22;1643;47.746;9.000;2024-03-02T14:11:53;16.30;99.90
3262;DHT22;1643;47.746;9.000;2024-03-02T14:14:20;16.40;99.90
3262;DHT22;1643;47.746;9.000;2024-03-02T14:16:46;16.20;99.90
3262;DHT22;1643;47.746;9.000;2024-03-02T14:19:12;16.30;99.90
3262;DHT22;1643;47.746;9.000;2024-03-02T14:21:38;16.30;99.90
3262;DHT22;1643;47.746;9.000;2024-03-02T14:24:04;16.30;99.90
3262;DHT22;1643;47.746;9.000;2024-03-02T14:26:32;16.10;99.90
3262;DHT22;1643;47.746;9.000;2024-03-02T14:28:59;16.00;99.90
3262;DHT22;1643;47.746;9.000;2024-03-02T14:31:26;15.90;99.90
3262;DHT22;1643;47.746;9.000;2024-03-02T14:33:53;15.70;99.90
3262;DHT22;1643;47.746;9.000;2024-03-02T14:36:18;15.70;99.90
3262;DHT22;1643;47.746;9.000;2024-03-02T14:38:44;15.60;99.90
3262;DHT22;1643;47.746;9.000;2024-03-02T14:41:10;15.40;99.90
3262;DHT22;1643;47.746;9.000;2024-03-02T14:43:36;15.30;99.90
3262;DHT22;1643;47.746;9.000;2024-03-02T14:46:03;15.20;99.90
3262;DHT22;1643;47.746;9.000;2024-03-02T14:48:29;15.10;99.90
3262;DHT22;1643;47.746;9.000;2024-03-02T14:50:55;15.00;99.90
3262;DHT22;1643;47.746;9.000;2024-03-02T14:53:24;14.80;99.90
3262;DHT22;1643;47.746;9.000;2024-03-02T14:55:50;14.70;99.90
3262;DHT22;1643;47.746;9.000;2024-03-02T14:58:15;14.70;99.90
3262;DHT22;1643;47.746;9.000;2024-03-02T15:00:41;14.60;99.90
3262;DHT22;1643;47.746;9.000;2024-03-02T15:03:10;14.50;99.90
3262;DHT22;1643;47.746;9.000;2024-03-02T15:05:37;14.40;99.90
3262;DHT22;1643;47.746;9.000;2024-03-02T15:08:04;14.40;99.90
3262;DHT22;1643;47.746;9.000;2024-03-02T15:10:30;14.40;99.90
3262;DHT22;1643;47.746;9.000;2024-03-02T15:12:57;14.40;99.90
3262;DHT22;1643;47.746;9.000;2024-03-02T15:15:22;14.40;99.90
3262;DHT22;1643;47.746;9.000;2024-03-02T15:17:48;14.30;99.90
3262;DHT22;1643;47.746;9.000;2024-03-02T15:20:14;14.30;99.90
3262;DHT22;1643;47.746;9.000;2024-03-02T15:22:41;14.20;99.90
3262;DHT22;1643;47.746;9.000;2024-03-02T15:25:06;14.20;99.90
3262;DHT22;1643;47.746;9.000;2024-03-02T15:27:32;14.20;99.90
3262;DHT22;1643;47.746;9.000;2024-03-02T15:29:58;14.30;99.90
3262;DHT22;1643;47.746;9.000;2024-03-02T15:32:24;14.20;99.90
3262;DHT22;1643;47.746;9.000;2024-03-02T15:34:52;14.20;99.90
3262;DHT22;1643;47.746;9.000;2024-03-02T15:37:18;14.20;99.90
3262;DHT22;1643;47.746;9.000;2024-03-02T15:39:44;14.20;99.90
3262;DHT22;1643;47.746;9.000;2024-03-02T15:42:11;14.20;99.90
3262;DHT22;1643;47.746;9.000;2024-03-02T15:44:38;14.20;99.90
3262;DHT22;1643;47.746;9.000;2024-03-02T15:47:04;14.20;99.90
3262;DHT22;1643;47.746;9.000;2024-03-02T15:49:30;14.20;99.90
3262;DHT22;1643;47.746;9.000;2024-03-02T15:51:57;14.20;99.90
3262;DHT22;1643;47.746;9.000;2024-03-02T15:54:26;14.20;99.90
3262;DHT22;1643;47.746;9.000;2024-03-02T15:56:51;14.20;99.90
3262;DHT22;1643;47.746;9.000;2024-03-02T15:59:17;14.20;99.90
3262;DHT22;1643;47.746;9.000;2024-03-02T16:01:43;14.10;99.90
3262;DHT22;1643;47.746;9.000;2024-03-02T16:04:08;14.00;99.90
3262;DHT22;1643;47.746;9.000;2024-03-02T16:06:34;13.90;99.90
3262;DHT22;1643;47.746;9.000;2024-03-02T16:09:00;13.90;99.90
3262;DHT22;1643;47.746;9.000;2024-03-02T16:11:26;13.80;99.90
3262;DHT22;1643;47.746;9.000;2024-03-02T16:13:52;13.70;99.90
3262;DHT22;1643;47.746;9.000;2024-03-02T16:16:17;13.60;99.90